PAPG Airport (Petersburg James A Johnson) Information

FAA: PSG - ICAO: PAPG

PAPG Airport Location

State Alaska
County Wrangell-Petersburg
City Petersburg
PAPG Airport is 1 miles southeast of Petersburg, AK.
Latitude 56-48-05.3000N
Longitude 132-56-46.4000W
Elevation 113ft

PAPG Airport METARs

METAR PAPG 200256Z 15007KT 10SM OVC110 12/M05 A2955 RMK AO2 SLP008 T01221050 56026
Altimeter 29.55"
Temperature 12.2°C (54.0°F)
Wind 150° at 7KT
Clouds overcast at 11,000ft
Visibility 10.0mi
Time observed: 2021-10-20T02:56:00Z

PAPG Airport Details

Status Operational
Activation January 1964
Ownership Public
Usage Public
Chart JUNEAU
ATC on-site No
Beacon schedule sunset-sunrise
Beacon color clear green

PAPG Airport Contacts

Owner ALASKA DOT&PF SOUTHCOAST REGION
Owner address 6860 GLACIER HWY, JUNEAU, AK 99801-7999
Owner phone 907-465-1779
Manager SHELBY STEELE
Manager address 1150 S. COLONY WAY SUITE 3 PMB 341, PALMER, AK 99645
Manager phone 907-746-3995

PAPG Airport (Petersburg James A Johnson) Radio Frequencies

PAPG (Airport) Radio Frequencies

UNICOM N/A
Common traffic advisory frequency (CTAF) 122.5